sensor_id;sensor_type;location;lat;lon;timestamp;temperature;humidity
28336;DHT22;15592;53.656;7.276;2023-01-15T00:01:34;5.90;99.90
28336;DHT22;15592;53.656;7.276;2023-01-15T00:04:01;6.00;99.90
28336;DHT22;15592;53.656;7.276;2023-01-15T00:06:30;6.00;99.90
28336;DHT22;15592;53.656;7.276;2023-01-15T00:08:57;5.90;99.90
28336;DHT22;15592;53.656;7.276;2023-01-15T00:11:23;5.90;99.90
28336;DHT22;15592;53.656;7.276;2023-01-15T00:13:49;5.90;99.90
28336;DHT22;15592;53.656;7.276;2023-01-15T00:16:16;5.90;99.90
28336;DHT22;15592;53.656;7.276;2023-01-15T00:18:42;5.90;99.90
28336;DHT22;15592;53.656;7.276;2023-01-15T00:21:10;5.90;99.90
28336;DHT22;15592;53.656;7.276;2023-01-15T00:23:37;5.90;99.90
28336;DHT22;15592;53.656;7.276;2023-01-15T00:26:25;5.90;99.90
28336;DHT22;15592;53.656;7.276;2023-01-15T00:29:09;5.90;99.90
28336;DHT22;15592;53.656;7.276;2023-01-15T00:31:35;5.90;99.90
28336;DHT22;15592;53.656;7.276;2023-01-15T00:34:02;5.90;99.90
28336;DHT22;15592;53.656;7.276;2023-01-15T00:36:28;5.90;99.90
28336;DHT22;15592;53.656;7.276;2023-01-15T00:38:54;5.90;99.90
28336;DHT22;15592;53.656;7.276;2023-01-15T00:41:19;5.90;99.90
28336;DHT22;15592;53.656;7.276;2023-01-15T00:43:45;5.90;99.90
28336;DHT22;15592;53.656;7.276;2023-01-15T00:46:11;5.90;99.90
28336;DHT22;15592;53.656;7.276;2023-01-15T00:48:36;6.00;99.90
28336;DHT22;15592;53.656;7.276;2023-01-15T00:51:02;5.90;99.90
28336;DHT22;15592;53.656;7.276;2023-01-15T00:53:28;5.90;99.90
28336;DHT22;15592;53.656;7.276;2023-01-15T00:55:54;5.90;99.90
28336;DHT22;15592;53.656;7.276;2023-01-15T00:58:20;6.00;99.90
28336;DHT22;15592;53.656;7.276;2023-01-15T01:00:45;5.90;99.90
28336;DHT22;15592;53.656;7.276;2023-01-15T01:03:11;6.00;99.90
28336;DHT22;15592;53.656;7.276;2023-01-15T01:05:37;5.90;99.90
28336;DHT22;15592;53.656;7.276;2023-01-15T01:08:02;5.90;99.90
28336;DHT22;15592;53.656;7.276;2023-01-15T01:10:28;6.00;99.90
28336;DHT22;15592;53.656;7.276;2023-01-15T01:12:53;6.00;99.90
28336;DHT22;15592;53.656;7.276;2023-01-15T01:15:20;6.00;99.90
28336;DHT22;15592;53.656;7.276;2023-01-15T01:17:46;5.90;99.90
28336;DHT22;15592;53.656;7.276;2023-01-15T01:20:14;6.00;99.90
28336;DHT22;15592;53.656;7.276;2023-01-15T01:22:40;6.00;99.90
28336;DHT22;15592;53.656;7.276;2023-01-15T01:25:06;5.90;99.90
28336;DHT22;15592;53.656;7.276;2023-01-15T01:27:32;6.00;99.90
28336;DHT22;15592;53.656;7.276;2023-01-15T01:29:58;6.00;99.90
28336;DHT22;15592;53.656;7.276;2023-01-15T01:32:23;6.00;99.90
28336;DHT22;15592;53.656;7.276;2023-01-15T01:34:49;6.00;99.90
28336;DHT22;15592;53.656;7.276;2023-01-15T01:37:14;6.00;99.90
28336;DHT22;15592;53.656;7.276;2023-01-15T01:39:40;6.00;99.90
28336;DHT22;15592;53.656;7.276;2023-01-15T01:42:16;6.00;99.90
28336;DHT22;15592;53.656;7.276;2023-01-15T01:47:14;6.00;99.90
28336;DHT22;15592;53.656;7.276;2023-01-15T01:49:44;6.00;99.90
28336;DHT22;15592;53.656;7.276;2023-01-15T01:52:12;5.90;99.90
28336;DHT22;15592;53.656;7.276;2023-01-15T01:54:40;6.00;99.90
28336;DHT22;15592;53.656;7.276;2023-01-15T01:57:07;5.90;99.90
28336;DHT22;15592;53.656;7.276;2023-01-15T01:59:35;6.00;99.90
28336;DHT22;15592;53.656;7.276;2023-01-15T02:02:01;5.90;99.90
28336;DHT22;15592;53.656;7.276;2023-01-15T02:04:28;6.00;99.90
28336;DHT22;15592;53.656;7.276;2023-01-15T02:06:54;6.00;99.90
28336;DHT22;15592;53.656;7.276;2023-01-15T02:09:20;5.90;99.90
28336;DHT22;15592;53.656;7.276;2023-01-15T02:11:46;6.00;99.90
28336;DHT22;15592;53.656;7.276;2023-01-15T02:14:27;6.00;99.90
28336;DHT22;15592;53.656;7.276;2023-01-15T02:17:06;5.90;99.90
28336;DHT22;15592;53.656;7.276;2023-01-15T02:19:55;6.00;99.90
28336;DHT22;15592;53.656;7.276;2023-01-15T02:26:05;6.00;99.90
28336;DHT22;15592;53.656;7.276;2023-01-15T02:28:37;5.90;99.90
28336;DHT22;15592;53.656;7.276;2023-01-15T02:31:17;6.00;99.90
28336;DHT22;15592;53.656;7.276;2023-01-15T02:33:50;5.90;99.90
28336;DHT22;15592;53.656;7.276;2023-01-15T02:36:18;6.00;99.90
28336;DHT22;15592;53.656;7.276;2023-01-15T02:38:48;6.00;99.90
28336;DHT22;15592;53.656;7.276;2023-01-15T02:41:18;6.00;99.90
28336;DHT22;15592;53.656;7.276;2023-01-15T02:43:50;6.00;99.90
28336;DHT22;15592;53.656;7.276;2023-01-15T02:46:17;6.00;99.90
28336;DHT22;15592;53.656;7.276;2023-01-15T02:48:47;6.00;99.90
28336;DHT22;15592;53.656;7.276;2023-01-15T02:51:19;6.00;99.90
28336;DHT22;15592;53.656;7.276;2023-01-15T02:53:47;6.00;99.90
28336;DHT22;15592;53.656;7.276;2023-01-15T02:56:18;6.00;99.90
28336;DHT22;15592;53.656;7.276;2023-01-15T02:58:47;6.00;99.90
28336;DHT22;15592;53.656;7.276;2023-01-15T03:01:17;6.00;99.90
28336;DHT22;15592;53.656;7.276;2023-01-15T03:06:21;6.00;99.90
28336;DHT22;15592;53.656;7.276;2023-01-15T03:08:49;5.90;99.90
28336;DHT22;15592;53.656;7.276;2023-01-15T03:11:17;5.90;99.90
28336;DHT22;15592;53.656;7.276;2023-01-15T03:24:16;5.90;99.90
28336;DHT22;15592;53.656;7.276;2023-01-15T03:26:43;5.90;99.90
28336;DHT22;15592;53.656;7.276;2023-01-15T03:29:08;5.90;99.90
28336;DHT22;15592;53.656;7.276;2023-01-15T03:31:35;5.90;99.90
28336;DHT22;15592;53.656;7.276;2023-01-15T03:34:02;5.90;99.90
28336;DHT22;15592;53.656;7.276;2023-01-15T03:36:28;5.90;99.90
28336;DHT22;15592;53.656;7.276;2023-01-15T03:38:54;5.90;99.90
28336;DHT22;15592;53.656;7.276;2023-01-15T03:41:24;5.90;99.90
28336;DHT22;15592;53.656;7.276;2023-01-15T03:44:01;5.80;99.90
28336;DHT22;15592;53.656;7.276;2023-01-15T03:54:56;5.80;99.90
28336;DHT22;15592;53.656;7.276;2023-01-15T03:57:40;5.90;99.90
28336;DHT22;15592;53.656;7.276;2023-01-15T04:02:58;5.90;99.90
28336;DHT22;15592;53.656;7.276;2023-01-15T04:05:24;5.90;99.90
28336;DHT22;15592;53.656;7.276;2023-01-15T04:07:52;5.90;99.90
28336;DHT22;15592;53.656;7.276;2023-01-15T04:10:18;5.90;99.90
28336;DHT22;15592;53.656;7.276;2023-01-15T04:12:44;5.90;99.90
28336;DHT22;15592;53.656;7.276;2023-01-15T04:15:11;5.90;99.90
28336;DHT22;15592;53.656;7.276;2023-01-15T04:17:37;5.90;99.90
28336;DHT22;15592;53.656;7.276;2023-01-15T04:20:05;5.90;99.90
28336;DHT22;15592;53.656;7.276;2023-01-15T04:22:30;5.80;99.90
28336;DHT22;15592;53.656;7.276;2023-01-15T04:24:56;5.80;99.90
28336;DHT22;15592;53.656;7.276;2023-01-15T04:27:22;5.80;99.90
28336;DHT22;15592;53.656;7.276;2023-01-15T04:29:47;5.80;99.90
28336;DHT22;15592;53.656;7.276;2023-01-15T04:32:14;5.80;99.90
28336;DHT22;15592;53.656;7.276;2023-01-15T04:34:39;5.80;99.90
28336;DHT22;15592;53.656;7.276;2023-01-15T04:37:05;5.80;99.90
28336;DHT22;15592;53.656;7.276;2023-01-15T04:39:31;5.80;99.90
28336;DHT22;15592;53.656;7.276;2023-01-15T04:41:56;5.80;99.90
28336;DHT22;15592;53.656;7.276;2023-01-15T04:44:40;5.70;99.90
28336;DHT22;15592;53.656;7.276;2023-01-15T04:47:06;5.70;99.90
28336;DHT22;15592;53.656;7.276;2023-01-15T04:49:33;5.70;99.90
28336;DHT22;15592;53.656;7.276;2023-01-15T04:51:58;5.70;99.90
28336;DHT22;15592;53.656;7.276;2023-01-15T04:54:24;5.70;99.90
28336;DHT22;15592;53.656;7.276;2023-01-15T04:56:52;5.70;99.90
28336;DHT22;15592;53.656;7.276;2023-01-15T04:59:20;5.70;99.90
28336;DHT22;15592;53.656;7.276;2023-01-15T05:01:47;5.60;99.90
28336;DHT22;15592;53.656;7.276;2023-01-15T05:04:12;5.60;99.90
28336;DHT22;15592;53.656;7.276;2023-01-15T05:06:38;5.60;99.90
28336;DHT22;15592;53.656;7.276;2023-01-15T05:09:04;5.50;99.90
28336;DHT22;15592;53.656;7.276;2023-01-15T05:11:33;5.50;99.90
28336;DHT22;15592;53.656;7.276;2023-01-15T05:13:59;5.50;99.90
28336;DHT22;15592;53.656;7.276;2023-01-15T05:16:26;5.50;99.90
28336;DHT22;15592;53.656;7.276;2023-01-15T05:18:53;5.50;99.90
28336;DHT22;15592;53.656;7.276;2023-01-15T05:21:22;5.40;99.90
28336;DHT22;15592;53.656;7.276;2023-01-15T05:23:50;5.40;99.90
28336;DHT22;15592;53.656;7.276;2023-01-15T05:26:16;5.40;99.90
28336;DHT22;15592;53.656;7.276;2023-01-15T05:28:42;5.40;99.90
28336;DHT22;15592;53.656;7.276;2023-01-15T05:31:12;5.30;99.90
28336;DHT22;15592;53.656;7.276;2023-01-15T05:33:39;5.30;99.90
28336;DHT22;15592;53.656;7.276;2023-01-15T05:36:07;5.30;99.90
28336;DHT22;15592;53.656;7.276;2023-01-15T05:38:33;5.30;99.90
28336;DHT22;15592;53.656;7.276;2023-01-15T05:41:03;5.30;99.90
28336;DHT22;15592;53.656;7.276;2023-01-15T05:43:48;5.30;99.90
28336;DHT22;15592;53.656;7.276;2023-01-15T05:46:14;5.30;99.90
28336;DHT22;15592;53.656;7.276;2023-01-15T05:48:39;5.30;99.90
28336;DHT22;15592;53.656;7.276;2023-01-15T05:51:06;5.30;99.90
28336;DHT22;15592;53.656;7.276;2023-01-15T05:53:31;5.30;99.90
28336;DHT22;15592;53.656;7.276;2023-01-15T05:56:03;5.30;99.90
28336;DHT22;15592;53.656;7.276;2023-01-15T05:58:28;5.40;99.90
28336;DHT22;15592;53.656;7.276;2023-01-15T06:00:54;5.40;99.90
28336;DHT22;15592;53.656;7.276;2023-01-15T06:03:26;5.40;99.90
28336;DHT22;15592;53.656;7.276;2023-01-15T06:06:18;5.40;99.90
28336;DHT22;15592;53.656;7.276;2023-01-15T06:08:44;5.40;99.90
28336;DHT22;15592;53.656;7.276;2023-01-15T06:11:10;5.40;99.90
28336;DHT22;15592;53.656;7.276;2023-01-15T06:13:37;5.40;99.90
28336;DHT22;15592;53.656;7.276;2023-01-15T06:16:04;5.40;99.90
28336;DHT22;15592;53.656;7.276;2023-01-15T06:18:30;5.40;99.90
28336;DHT22;15592;53.656;7.276;2023-01-15T06:21:02;5.40;99.90
28336;DHT22;15592;53.656;7.276;2023-01-15T06:23:27;5.40;99.90
28336;DHT22;15592;53.656;7.276;2023-01-15T06:25:53;5.40;99.90
28336;DHT22;15592;53.656;7.276;2023-01-15T06:28:18;5.30;99.90
28336;DHT22;15592;53.656;7.276;2023-01-15T06:30:44;5.30;99.90
28336;DHT22;15592;53.656;7.276;2023-01-15T06:33:09;5.30;99.90
28336;DHT22;15592;53.656;7.276;2023-01-15T06:35:38;5.30;99.90
28336;DHT22;15592;53.656;7.276;2023-01-15T06:38:03;5.30;99.90
28336;DHT22;15592;53.656;7.276;2023-01-15T06:40:29;5.30;99.90
28336;DHT22;15592;53.656;7.276;2023-01-15T06:42:57;5.20;99.90
28336;DHT22;15592;53.656;7.276;2023-01-15T06:45:42;5.30;99.90
28336;DHT22;15592;53.656;7.276;2023-01-15T06:48:27;5.20;99.90
28336;DHT22;15592;53.656;7.276;2023-01-15T06:50:53;5.30;99.90
28336;DHT22;15592;53.656;7.276;2023-01-15T06:53:19;5.20;99.90
28336;DHT22;15592;53.656;7.276;2023-01-15T06:55:45;5.30;99.90
28336;DHT22;15592;53.656;7.276;2023-01-15T06:58:11;5.30;99.90
28336;DHT22;15592;53.656;7.276;2023-01-15T07:00:37;5.20;99.90
28336;DHT22;15592;53.656;7.276;2023-01-15T07:03:03;5.30;99.90
28336;DHT22;15592;53.656;7.276;2023-01-15T07:05:29;5.30;99.90
28336;DHT22;15592;53.656;7.276;2023-01-15T07:07:56;5.30;99.90
28336;DHT22;15592;53.656;7.276;2023-01-15T07:10:22;5.20;99.90
28336;DHT22;15592;53.656;7.276;2023-01-15T07:12:48;5.20;99.90
28336;DHT22;15592;53.656;7.276;2023-01-15T07:15:13;5.20;99.90
28336;DHT22;15592;53.656;7.276;2023-01-15T07:17:39;5.20;99.90
28336;DHT22;15592;53.656;7.276;2023-01-15T07:20:05;5.20;99.90
28336;DHT22;15592;53.656;7.276;2023-01-15T07:22:31;5.10;99.90
28336;DHT22;15592;53.656;7.276;2023-01-15T07:24:56;5.10;99.90
28336;DHT22;15592;53.656;7.276;2023-01-15T07:27:22;5.20;99.90
28336;DHT22;15592;53.656;7.276;2023-01-15T07:29:48;5.20;99.90
28336;DHT22;15592;53.656;7.276;2023-01-15T07:32:17;5.20;99.90
28336;DHT22;15592;53.656;7.276;2023-01-15T07:34:43;5.20;99.90
28336;DHT22;15592;53.656;7.276;2023-01-15T07:37:09;5.20;99.90
28336;DHT22;15592;53.656;7.276;2023-01-15T07:39:34;5.20;99.90
28336;DHT22;15592;53.656;7.276;2023-01-15T07:42:00;5.20;99.90
28336;DHT22;15592;53.656;7.276;2023-01-15T07:44:44;5.20;99.90
28336;DHT22;15592;53.656;7.276;2023-01-15T07:47:28;5.20;99.90
28336;DHT22;15592;53.656;7.276;2023-01-15T07:50:19;5.20;99.90
28336;DHT22;15592;53.656;7.276;2023-01-15T07:52:45;5.20;99.90
28336;DHT22;15592;53.656;7.276;2023-01-15T07:55:11;5.20;99.90
28336;DHT22;15592;53.656;7.276;2023-01-15T07:57:38;5.10;99.90
28336;DHT22;15592;53.656;7.276;2023-01-15T08:00:10;5.10;99.90
28336;DHT22;15592;53.656;7.276;2023-01-15T08:02:36;5.10;99.90
28336;DHT22;15592;53.656;7.276;2023-01-15T08:05:02;5.10;99.90
28336;DHT22;15592;53.656;7.276;2023-01-15T08:07:27;5.10;99.90
28336;DHT22;15592;53.656;7.276;2023-01-15T08:09:53;5.10;99.90
28336;DHT22;15592;53.656;7.276;2023-01-15T08:12:18;5.20;99.90
28336;DHT22;15592;53.656;7.276;2023-01-15T08:15:03;5.20;99.90
28336;DHT22;15592;53.656;7.276;2023-01-15T08:17:42;5.30;99.90
28336;DHT22;15592;53.656;7.276;2023-01-15T08:20:11;5.30;99.90
28336;DHT22;15592;53.656;7.276;2023-01-15T08:22:37;5.40;99.90
28336;DHT22;15592;53.656;7.276;2023-01-15T08:25:04;5.40;99.90
28336;DHT22;15592;53.656;7.276;2023-01-15T08:27:36;5.40;99.90
28336;DHT22;15592;53.656;7.276;2023-01-15T08:30:22;5.40;99.90
28336;DHT22;15592;53.656;7.276;2023-01-15T08:32:48;5.40;99.90
28336;DHT22;15592;53.656;7.276;2023-01-15T08:35:14;5.50;99.90
28336;DHT22;15592;53.656;7.276;2023-01-15T08:37:42;5.50;99.90
28336;DHT22;15592;53.656;7.276;2023-01-15T08:40:09;5.50;99.90
28336;DHT22;15592;53.656;7.276;2023-01-15T08:42:38;5.60;99.90
28336;DHT22;15592;53.656;7.276;2023-01-15T08:45:07;5.50;99.90
28336;DHT22;15592;53.656;7.276;2023-01-15T08:47:33;5.50;99.90
28336;DHT22;15592;53.656;7.276;2023-01-15T08:49:58;5.50;99.90
28336;DHT22;15592;53.656;7.276;2023-01-15T08:52:24;5.50;99.90
28336;DHT22;15592;53.656;7.276;2023-01-15T08:54:49;5.50;99.90
28336;DHT22;15592;53.656;7.276;2023-01-15T08:57:15;5.50;99.90
28336;DHT22;15592;53.656;7.276;2023-01-15T08:59:47;5.60;99.90
28336;DHT22;15592;53.656;7.276;2023-01-15T09:02:13;5.50;99.90
28336;DHT22;15592;53.656;7.276;2023-01-15T09:04:39;5.50;99.90
28336;DHT22;15592;53.656;7.276;2023-01-15T09:07:05;5.50;99.90
28336;DHT22;15592;53.656;7.276;2023-01-15T09:09:32;5.50;99.90
28336;DHT22;15592;53.656;7.276;2023-01-15T09:11:57;5.50;99.90
28336;DHT22;15592;53.656;7.276;2023-01-15T09:14:23;5.40;99.90
28336;DHT22;15592;53.656;7.276;2023-01-15T09:16:48;5.40;99.90
28336;DHT22;15592;53.656;7.276;2023-01-15T09:19:14;5.30;99.90
28336;DHT22;15592;53.656;7.276;2023-01-15T09:21:39;5.10;99.90
28336;DHT22;15592;53.656;7.276;2023-01-15T09:24:05;5.00;99.90
28336;DHT22;15592;53.656;7.276;2023-01-15T09:26:34;5.00;99.90
28336;DHT22;15592;53.656;7.276;2023-01-15T09:29:00;5.00;99.90
28336;DHT22;15592;53.656;7.276;2023-01-15T09:31:26;5.00;99.90
28336;DHT22;15592;53.656;7.276;2023-01-15T09:33:52;5.00;99.90
28336;DHT22;15592;53.656;7.276;2023-01-15T09:36:23;4.90;99.90
28336;DHT22;15592;53.656;7.276;2023-01-15T09:38:50;4.90;99.90
28336;DHT22;15592;53.656;7.276;2023-01-15T09:41:16;4.90;99.90
28336;DHT22;15592;53.656;7.276;2023-01-15T09:44:25;4.90;99.90
28336;DHT22;15592;53.656;7.276;2023-01-15T09:47:12;4.90;99.90
28336;DHT22;15592;53.656;7.276;2023-01-15T09:52:47;4.80;99.90
28336;DHT22;15592;53.656;7.276;2023-01-15T09:57:37;4.80;99.90
28336;DHT22;15592;53.656;7.276;2023-01-15T10:00:05;4.90;99.90
28336;DHT22;15592;53.656;7.276;2023-01-15T10:05:10;5.00;99.90
28336;DHT22;15592;53.656;7.276;2023-01-15T10:07:48;5.00;99.90
28336;DHT22;15592;53.656;7.276;2023-01-15T10:10:20;5.20;99.90
28336;DHT22;15592;53.656;7.276;2023-01-15T10:12:49;5.30;99.90
28336;DHT22;15592;53.656;7.276;2023-01-15T10:15:26;5.20;99.90
28336;DHT22;15592;53.656;7.276;2023-01-15T10:17:56;5.20;99.90
28336;DHT22;15592;53.656;7.276;2023-01-15T10:25:50;5.30;99.90
28336;DHT22;15592;53.656;7.276;2023-01-15T10:28:22;5.40;99.90
28336;DHT22;15592;53.656;7.276;2023-01-15T10:30:54;5.50;99.90
28336;DHT22;15592;53.656;7.276;2023-01-15T10:41:35;5.70;99.90
28336;DHT22;15592;53.656;7.276;2023-01-15T10:44:17;5.70;99.90
28336;DHT22;15592;53.656;7.276;2023-01-15T10:46:52;5.70;99.90
28336;DHT22;15592;53.656;7.276;2023-01-15T10:49:18;5.70;99.90
28336;DHT22;15592;53.656;7.276;2023-01-15T10:57:10;5.80;99.90
28336;DHT22;15592;53.656;7.276;2023-01-15T10:59:56;5.80;99.90
28336;DHT22;15592;53.656;7.276;2023-01-15T11:02:53;5.90;99.90
28336;DHT22;15592;53.656;7.276;2023-01-15T11:05:20;6.10;99.90
28336;DHT22;15592;53.656;7.276;2023-01-15T11:07:49;6.20;99.90
28336;DHT22;15592;53.656;7.276;2023-01-15T11:10:19;6.20;99.90
28336;DHT22;15592;53.656;7.276;2023-01-15T11:12:54;6.20;99.90
28336;DHT22;15592;53.656;7.276;2023-01-15T11:15:39;6.30;99.90
28336;DHT22;15592;53.656;7.276;2023-01-15T11:18:35;6.40;99.90
28336;DHT22;15592;53.656;7.276;2023-01-15T11:21:23;6.50;99.90
28336;DHT22;15592;53.656;7.276;2023-01-15T11:23:51;6.60;99.90
28336;DHT22;15592;53.656;7.276;2023-01-15T11:26:30;6.60;99.90
28336;DHT22;15592;53.656;7.276;2023-01-15T11:28:58;6.60;99.90
28336;DHT22;15592;53.656;7.276;2023-01-15T11:31:35;6.60;99.90
28336;DHT22;15592;53.656;7.276;2023-01-15T11:34:03;6.50;99.90
28336;DHT22;15592;53.656;7.276;2023-01-15T11:36:30;6.50;99.90
28336;DHT22;15592;53.656;7.276;2023-01-15T11:38:56;6.40;99.90
28336;DHT22;15592;53.656;7.276;2023-01-15T11:44:11;6.40;99.90
28336;DHT22;15592;53.656;7.276;2023-01-15T11:46:55;6.40;99.90
28336;DHT22;15592;53.656;7.276;2023-01-15T11:49:49;6.40;99.90
28336;DHT22;15592;53.656;7.276;2023-01-15T11:52:37;6.40;99.90
28336;DHT22;15592;53.656;7.276;2023-01-15T11:55:10;6.40;99.90
28336;DHT22;15592;53.656;7.276;2023-01-15T11:57:38;6.30;99.90
28336;DHT22;15592;53.656;7.276;2023-01-15T12:00:05;6.30;99.90
28336;DHT22;15592;53.656;7.276;2023-01-15T12:02:40;6.30;99.90
28336;DHT22;15592;53.656;7.276;2023-01-15T12:05:24;6.20;99.90
28336;DHT22;15592;53.656;7.276;2023-01-15T12:07:52;6.20;99.90
28336;DHT22;15592;53.656;7.276;2023-01-15T12:10:32;6.10;99.90
28336;DHT22;15592;53.656;7.276;2023-01-15T12:16:46;6.10;99.90
28336;DHT22;15592;53.656;7.276;2023-01-15T12:24:40;6.10;99.90
28336;DHT22;15592;53.656;7.276;2023-01-15T12:27:17;6.00;99.90
28336;DHT22;15592;53.656;7.276;2023-01-15T12:29:57;6.00;99.90
28336;DHT22;15592;53.656;7.276;2023-01-15T12:32:29;5.90;99.90
28336;DHT22;15592;53.656;7.276;2023-01-15T12:37:54;5.90;99.90
28336;DHT22;15592;53.656;7.276;2023-01-15T12:42:51;5.80;99.90
28336;DHT22;15592;53.656;7.276;2023-01-15T12:45:48;5.80;99.90
28336;DHT22;15592;53.656;7.276;2023-01-15T12:48:28;5.80;99.90
28336;DHT22;15592;53.656;7.276;2023-01-15T12:50:58;5.80;99.90
28336;DHT22;15592;53.656;7.276;2023-01-15T12:53:49;5.80;99.90
28336;DHT22;15592;53.656;7.276;2023-01-15T12:56:44;5.80;99.90
28336;DHT22;15592;53.656;7.276;2023-01-15T13:00:09;5.80;99.90
28336;DHT22;15592;53.656;7.276;2023-01-15T13:02:36;5.80;99.90
28336;DHT22;15592;53.656;7.276;2023-01-15T13:05:29;5.80;99.90
28336;DHT22;15592;53.656;7.276;2023-01-15T13:08:16;5.80;99.90
28336;DHT22;15592;53.656;7.276;2023-01-15T13:10:44;5.90;99.90
28336;DHT22;15592;53.656;7.276;2023-01-15T13:13:31;5.90;99.90
28336;DHT22;15592;53.656;7.276;2023-01-15T13:16:20;5.90;99.90
28336;DHT22;15592;53.656;7.276;2023-01-15T13:22:22;5.90;99.90
28336;DHT22;15592;53.656;7.276;2023-01-15T13:25:17;5.90;99.90
28336;DHT22;15592;53.656;7.276;2023-01-15T13:35:51;5.80;99.90
28336;DHT22;15592;53.656;7.276;2023-01-15T13:38:21;5.90;99.90
28336;DHT22;15592;53.656;7.276;2023-01-15T13:40:52;5.80;99.90
28336;DHT22;15592;53.656;7.276;2023-01-15T13:43:36;5.90;99.90
28336;DHT22;15592;53.656;7.276;2023-01-15T13:46:07;5.90;99.90
28336;DHT22;15592;53.656;7.276;2023-01-15T13:48:36;5.90;99.90
28336;DHT22;15592;53.656;7.276;2023-01-15T13:51:06;5.90;99.90
28336;DHT22;15592;53.656;7.276;2023-01-15T13:53:46;5.90;99.90
28336;DHT22;15592;53.656;7.276;2023-01-15T13:56:23;5.90;99.90
28336;DHT22;15592;53.656;7.276;2023-01-15T13:58:56;5.90;99.90
28336;DHT22;15592;53.656;7.276;2023-01-15T14:01:31;6.00;99.90
28336;DHT22;15592;53.656;7.276;2023-01-15T14:06:42;6.00;99.90
28336;DHT22;15592;53.656;7.276;2023-01-15T14:12:07;6.00;99.90
28336;DHT22;15592;53.656;7.276;2023-01-15T14:35:56;6.00;99.90
28336;DHT22;15592;53.656;7.276;2023-01-15T14:38:26;6.00;99.90
28336;DHT22;15592;53.656;7.276;2023-01-15T14:41:01;6.00;99.90
28336;DHT22;15592;53.656;7.276;2023-01-15T14:43:33;6.00;99.90
28336;DHT22;15592;53.656;7.276;2023-01-15T14:46:29;6.00;99.90
28336;DHT22;15592;53.656;7.276;2023-01-15T14:48:57;6.00;99.90
28336;DHT22;15592;53.656;7.276;2023-01-15T14:54:00;6.00;99.90
28336;DHT22;15592;53.656;7.276;2023-01-15T14:56:33;6.00;99.90
28336;DHT22;15592;53.656;7.276;2023-01-15T14:59:02;6.10;99.90
28336;DHT22;15592;53.656;7.276;2023-01-15T15:04:56;6.10;99.90
28336;DHT22;15592;53.656;7.276;2023-01-15T15:07:29;6.20;99.90
28336;DHT22;15592;53.656;7.276;2023-01-15T15:10:32;6.20;99.90
28336;DHT22;15592;53.656;7.276;2023-01-15T15:17:11;6.30;99.90
28336;DHT22;15592;53.656;7.276;2023-01-15T15:22:55;6.40;99.90
28336;DHT22;15592;53.656;7.276;2023-01-15T15:25:29;6.40;99.90
28336;DHT22;15592;53.656;7.276;2023-01-15T15:28:23;6.40;99.90
28336;DHT22;15592;53.656;7.276;2023-01-15T15:30:48;6.40;99.90
28336;DHT22;15592;53.656;7.276;2023-01-15T15:33:20;6.50;99.90
28336;DHT22;15592;53.656;7.276;2023-01-15T15:35:51;6.50;99.90
28336;DHT22;15592;53.656;7.276;2023-01-15T15:38:19;6.50;99.90
28336;DHT22;15592;53.656;7.276;2023-01-15T15:40:49;6.50;99.90
28336;DHT22;15592;53.656;7.276;2023-01-15T15:43:39;6.40;99.90
28336;DHT22;15592;53.656;7.276;2023-01-15T15:49:51;6.40;99.90
28336;DHT22;15592;53.656;7.276;2023-01-15T15:52:21;6.30;99.90
28336;DHT22;15592;53.656;7.276;2023-01-15T15:55:02;6.30;99.90
28336;DHT22;15592;53.656;7.276;2023-01-15T15:57:31;6.30;99.90
28336;DHT22;15592;53.656;7.276;2023-01-15T15:59:58;6.30;99.90
28336;DHT22;15592;53.656;7.276;2023-01-15T16:02:32;6.40;99.90
28336;DHT22;15592;53.656;7.276;2023-01-15T16:05:24;6.40;99.90
28336;DHT22;15592;53.656;7.276;2023-01-15T16:10:40;6.40;99.90
28336;DHT22;15592;53.656;7.276;2023-01-15T16:13:11;6.40;99.90
28336;DHT22;15592;53.656;7.276;2023-01-15T16:15:40;6.50;99.90
28336;DHT22;15592;53.656;7.276;2023-01-15T16:27:32;6.40;99.90
28336;DHT22;15592;53.656;7.276;2023-01-15T16:30:00;6.40;99.90
28336;DHT22;15592;53.656;7.276;2023-01-15T16:32:29;6.40;99.90
28336;DHT22;15592;53.656;7.276;2023-01-15T16:35:21;6.40;99.90
28336;DHT22;15592;53.656;7.276;2023-01-15T16:38:31;6.50;99.90
28336;DHT22;15592;53.656;7.276;2023-01-15T16:44:36;6.50;99.90
28336;DHT22;15592;53.656;7.276;2023-01-15T16:47:04;6.50;99.90
28336;DHT22;15592;53.656;7.276;2023-01-15T16:49:32;6.50;99.90
28336;DHT22;15592;53.656;7.276;2023-01-15T16:51:59;6.50;99.90
28336;DHT22;15592;53.656;7.276;2023-01-15T16:57:04;6.50;99.90
28336;DHT22;15592;53.656;7.276;2023-01-15T17:02:24;6.50;99.90
28336;DHT22;15592;53.656;7.276;2023-01-15T17:04:54;6.50;99.90
28336;DHT22;15592;53.656;7.276;2023-01-15T17:07:35;6.50;99.90
28336;DHT22;15592;53.656;7.276;2023-01-15T17:10:03;6.50;99.90
28336;DHT22;15592;53.656;7.276;2023-01-15T17:12:41;6.50;99.90
28336;DHT22;15592;53.656;7.276;2023-01-15T17:17:50;6.40;99.90
28336;DHT22;15592;53.656;7.276;2023-01-15T17:20:18;6.40;99.90
28336;DHT22;15592;53.656;7.276;2023-01-15T17:22:47;6.40;99.90
28336;DHT22;15592;53.656;7.276;2023-01-15T17:25:27;6.40;99.90
28336;DHT22;15592;53.656;7.276;2023-01-15T17:27:55;6.40;99.90
28336;DHT22;15592;53.656;7.276;2023-01-15T17:30:22;6.40;99.90
28336;DHT22;15592;53.656;7.276;2023-01-15T17:33:02;6.40;99.90
28336;DHT22;15592;53.656;7.276;2023-01-15T17:35:36;6.40;99.90
28336;DHT22;15592;53.656;7.276;2023-01-15T17:38:03;6.40;99.90
28336;DHT22;15592;53.656;7.276;2023-01-15T17:40:29;6.40;99.90
28336;DHT22;15592;53.656;7.276;2023-01-15T17:43:09;6.40;99.90
28336;DHT22;15592;53.656;7.276;2023-01-15T17:45:36;6.40;99.90
28336;DHT22;15592;53.656;7.276;2023-01-15T17:48:04;6.40;99.90
28336;DHT22;15592;53.656;7.276;2023-01-15T17:50:37;6.40;99.90
28336;DHT22;15592;53.656;7.276;2023-01-15T17:53:04;6.40;99.90
28336;DHT22;15592;53.656;7.276;2023-01-15T17:55:29;6.30;99.90
28336;DHT22;15592;53.656;7.276;2023-01-15T17:58:14;6.30;99.90
28336;DHT22;15592;53.656;7.276;2023-01-15T18:01:00;6.20;99.90
28336;DHT22;15592;53.656;7.276;2023-01-15T18:03:49;6.20;99.90
28336;DHT22;15592;53.656;7.276;2023-01-15T18:06:35;6.10;99.90
28336;DHT22;15592;53.656;7.276;2023-01-15T18:09:03;6.00;99.90
28336;DHT22;15592;53.656;7.276;2023-01-15T18:11:32;5.90;99.90
28336;DHT22;15592;53.656;7.276;2023-01-15T18:14:44;5.90;99.90
28336;DHT22;15592;53.656;7.276;2023-01-15T18:17:15;5.80;99.90
28336;DHT22;15592;53.656;7.276;2023-01-15T18:19:44;5.80;99.90
28336;DHT22;15592;53.656;7.276;2023-01-15T18:22:10;5.80;99.90
28336;DHT22;15592;53.656;7.276;2023-01-15T18:24:41;5.80;99.90
28336;DHT22;15592;53.656;7.276;2023-01-15T18:27:48;5.80;99.90
28336;DHT22;15592;53.656;7.276;2023-01-15T18:30:21;5.70;99.90
28336;DHT22;15592;53.656;7.276;2023-01-15T18:33:09;5.70;99.90
28336;DHT22;15592;53.656;7.276;2023-01-15T18:35:35;5.60;99.90
28336;DHT22;15592;53.656;7.276;2023-01-15T18:38:10;5.60;99.90
28336;DHT22;15592;53.656;7.276;2023-01-15T18:46:19;5.50;99.90
28336;DHT22;15592;53.656;7.276;2023-01-15T18:49:04;5.60;99.90
28336;DHT22;15592;53.656;7.276;2023-01-15T18:51:29;5.50;99.90